sensor_id;sensor_type;location;lat;lon;timestamp;temperature;humidity
3548;DHT22;1788;49.400;11.092;2022-11-20T00:01:13;4.50;67.50
3548;DHT22;1788;49.400;11.092;2022-11-20T00:03:39;4.50;67.60
3548;DHT22;1788;49.400;11.092;2022-11-20T00:08:33;4.60;67.70
3548;DHT22;1788;49.400;11.092;2022-11-20T00:11:03;4.60;67.70
3548;DHT22;1788;49.400;11.092;2022-11-20T00:13:26;4.60;67.60
3548;DHT22;1788;49.400;11.092;2022-11-20T00:18:19;4.60;67.60
3548;DHT22;1788;49.400;11.092;2022-11-20T00:20:45;4.60;67.60
3548;DHT22;1788;49.400;11.092;2022-11-20T00:23:12;4.60;67.50
3548;DHT22;1788;49.400;11.092;2022-11-20T00:25:39;4.60;67.50
3548;DHT22;1788;49.400;11.092;2022-11-20T00:28:06;4.60;67.50
3548;DHT22;1788;49.400;11.092;2022-11-20T00:30:33;4.60;68.20
3548;DHT22;1788;49.400;11.092;2022-11-20T00:33:00;4.60;67.40
3548;DHT22;1788;49.400;11.092;2022-11-20T00:35:27;4.70;67.50
3548;DHT22;1788;49.400;11.092;2022-11-20T00:37:53;4.70;67.60
3548;DHT22;1788;49.400;11.092;2022-11-20T00:40:20;4.70;67.60
3548;DHT22;1788;49.400;11.092;2022-11-20T00:42:46;4.70;67.60
3548;DHT22;1788;49.400;11.092;2022-11-20T00:45:13;4.70;67.50
3548;DHT22;1788;49.400;11.092;2022-11-20T00:47:40;4.70;67.50
3548;DHT22;1788;49.400;11.092;2022-11-20T00:50:06;4.70;67.40
3548;DHT22;1788;49.400;11.092;2022-11-20T00:52:34;4.70;67.40
3548;DHT22;1788;49.400;11.092;2022-11-20T00:55:00;4.70;67.40
3548;DHT22;1788;49.400;11.092;2022-11-20T00:57:27;4.70;67.30
3548;DHT22;1788;49.400;11.092;2022-11-20T00:59:53;4.70;67.20
3548;DHT22;1788;49.400;11.092;2022-11-20T01:02:20;4.70;67.40
3548;DHT22;1788;49.400;11.092;2022-11-20T01:04:47;4.70;67.30
3548;DHT22;1788;49.400;11.092;2022-11-20T01:07:13;4.70;67.30
3548;DHT22;1788;49.400;11.092;2022-11-20T01:09:40;4.70;67.30
3548;DHT22;1788;49.400;11.092;2022-11-20T01:12:07;4.70;67.30
3548;DHT22;1788;49.400;11.092;2022-11-20T01:14:34;4.70;67.40
3548;DHT22;1788;49.400;11.092;2022-11-20T01:17:01;4.70;67.30
3548;DHT22;1788;49.400;11.092;2022-11-20T01:19:27;4.70;67.40
3548;DHT22;1788;49.400;11.092;2022-11-20T01:21:54;4.70;67.40
3548;DHT22;1788;49.400;11.092;2022-11-20T01:24:21;4.80;67.50
3548;DHT22;1788;49.400;11.092;2022-11-20T01:26:48;4.80;67.40
3548;DHT22;1788;49.400;11.092;2022-11-20T01:31:41;4.70;67.30
3548;DHT22;1788;49.400;11.092;2022-11-20T01:36:35;4.80;67.40
3548;DHT22;1788;49.400;11.092;2022-11-20T01:39:02;4.80;67.40
3548;DHT22;1788;49.400;11.092;2022-11-20T01:41:29;4.80;67.40
3548;DHT22;1788;49.400;11.092;2022-11-20T01:43:55;4.70;67.20
3548;DHT22;1788;49.400;11.092;2022-11-20T01:46:21;4.70;67.20
3548;DHT22;1788;49.400;11.092;2022-11-20T01:53:41;4.70;67.40
3548;DHT22;1788;49.400;11.092;2022-11-20T01:56:09;4.70;67.30
3548;DHT22;1788;49.400;11.092;2022-11-20T01:58:36;4.70;67.80
3548;DHT22;1788;49.400;11.092;2022-11-20T02:01:02;4.70;67.40
3548;DHT22;1788;49.400;11.092;2022-11-20T02:03:29;4.70;68.00
3548;DHT22;1788;49.400;11.092;2022-11-20T02:08:23;4.70;67.50
3548;DHT22;1788;49.400;11.092;2022-11-20T02:10:49;4.70;67.50
3548;DHT22;1788;49.400;11.092;2022-11-20T02:13:16;4.70;67.50
3548;DHT22;1788;49.400;11.092;2022-11-20T02:15:43;4.80;67.70
3548;DHT22;1788;49.400;11.092;2022-11-20T02:18:10;4.70;67.50
3548;DHT22;1788;49.400;11.092;2022-11-20T02:20:36;4.80;67.60
3548;DHT22;1788;49.400;11.092;2022-11-20T02:25:30;4.80;67.60
3548;DHT22;1788;49.400;11.092;2022-11-20T02:27:56;4.80;67.70
3548;DHT22;1788;49.400;11.092;2022-11-20T02:30:23;4.80;67.70
3548;DHT22;1788;49.400;11.092;2022-11-20T02:32:49;4.80;67.70
3548;DHT22;1788;49.400;11.092;2022-11-20T02:37:43;4.80;67.70
3548;DHT22;1788;49.400;11.092;2022-11-20T02:40:09;4.80;67.70
3548;DHT22;1788;49.400;11.092;2022-11-20T02:42:36;4.80;67.70
3548;DHT22;1788;49.400;11.092;2022-11-20T02:45:03;4.80;67.70
3548;DHT22;1788;49.400;11.092;2022-11-20T02:47:30;4.80;67.60
3548;DHT22;1788;49.400;11.092;2022-11-20T02:49:56;4.80;67.60
3548;DHT22;1788;49.400;11.092;2022-11-20T02:52:24;4.80;67.80
3548;DHT22;1788;49.400;11.092;2022-11-20T02:54:50;4.80;67.70
3548;DHT22;1788;49.400;11.092;2022-11-20T02:57:17;4.80;67.80
3548;DHT22;1788;49.400;11.092;2022-11-20T02:59:44;4.80;67.80
3548;DHT22;1788;49.400;11.092;2022-11-20T03:02:10;4.80;67.80
3548;DHT22;1788;49.400;11.092;2022-11-20T03:04:37;4.80;67.80
3548;DHT22;1788;49.400;11.092;2022-11-20T03:07:03;4.80;67.90
3548;DHT22;1788;49.400;11.092;2022-11-20T03:09:30;4.80;67.90
3548;DHT22;1788;49.400;11.092;2022-11-20T03:11:57;4.80;67.80
3548;DHT22;1788;49.400;11.092;2022-11-20T03:14:23;4.80;67.80
3548;DHT22;1788;49.400;11.092;2022-11-20T03:16:50;4.90;67.90
3548;DHT22;1788;49.400;11.092;2022-11-20T03:19:17;4.90;67.90
3548;DHT22;1788;49.400;11.092;2022-11-20T03:21:43;4.90;67.90
3548;DHT22;1788;49.400;11.092;2022-11-20T03:24:10;4.90;67.90
3548;DHT22;1788;49.400;11.092;2022-11-20T03:26:36;4.90;67.90
3548;DHT22;1788;49.400;11.092;2022-11-20T03:29:03;4.90;67.90
3548;DHT22;1788;49.400;11.092;2022-11-20T03:31:31;4.90;67.90
3548;DHT22;1788;49.400;11.092;2022-11-20T03:33:57;4.90;67.90
3548;DHT22;1788;49.400;11.092;2022-11-20T03:36:25;4.90;67.90
3548;DHT22;1788;49.400;11.092;2022-11-20T03:38:50;4.90;67.80
3548;DHT22;1788;49.400;11.092;2022-11-20T03:46:11;4.90;67.90
3548;DHT22;1788;49.400;11.092;2022-11-20T03:48:37;4.90;67.90
3548;DHT22;1788;49.400;11.092;2022-11-20T03:53:32;4.90;68.00
3548;DHT22;1788;49.400;11.092;2022-11-20T03:55:58;4.90;68.00
3548;DHT22;1788;49.400;11.092;2022-11-20T03:58:25;4.90;68.00
3548;DHT22;1788;49.400;11.092;2022-11-20T04:00:51;4.90;68.00
3548;DHT22;1788;49.400;11.092;2022-11-20T04:03:18;4.90;68.00
3548;DHT22;1788;49.400;11.092;2022-11-20T04:05:45;4.90;68.00
3548;DHT22;1788;49.400;11.092;2022-11-20T04:08:11;4.90;68.00
3548;DHT22;1788;49.400;11.092;2022-11-20T04:10:39;4.90;68.20
3548;DHT22;1788;49.400;11.092;2022-11-20T04:13:05;4.90;68.10
3548;DHT22;1788;49.400;11.092;2022-11-20T04:15:32;4.90;68.10
3548;DHT22;1788;49.400;11.092;2022-11-20T04:17:58;4.90;68.00
3548;DHT22;1788;49.400;11.092;2022-11-20T04:20:25;4.90;68.10
3548;DHT22;1788;49.400;11.092;2022-11-20T04:22:53;4.90;68.10
3548;DHT22;1788;49.400;11.092;2022-11-20T04:25:18;4.90;68.10
3548;DHT22;1788;49.400;11.092;2022-11-20T04:27:45;4.90;68.10
3548;DHT22;1788;49.400;11.092;2022-11-20T04:30:12;4.90;68.10
3548;DHT22;1788;49.400;11.092;2022-11-20T04:32:39;4.90;68.10
3548;DHT22;1788;49.400;11.092;2022-11-20T04:35:06;4.90;68.10
3548;DHT22;1788;49.400;11.092;2022-11-20T04:37:32;4.90;68.10
3548;DHT22;1788;49.400;11.092;2022-11-20T04:39:59;4.90;68.10
3548;DHT22;1788;49.400;11.092;2022-11-20T04:42:25;4.90;68.10
3548;DHT22;1788;49.400;11.092;2022-11-20T04:44:53;4.90;68.20
3548;DHT22;1788;49.400;11.092;2022-11-20T04:47:20;4.90;68.20
3548;DHT22;1788;49.400;11.092;2022-11-20T04:49:47;4.90;68.20
3548;DHT22;1788;49.400;11.092;2022-11-20T04:52:13;4.90;68.20
3548;DHT22;1788;49.400;11.092;2022-11-20T04:54:41;4.90;68.20
3548;DHT22;1788;49.400;11.092;2022-11-20T04:57:07;4.90;68.20
3548;DHT22;1788;49.400;11.092;2022-11-20T04:59:35;4.90;68.80
3548;DHT22;1788;49.400;11.092;2022-11-20T05:02:01;4.90;68.20
3548;DHT22;1788;49.400;11.092;2022-11-20T05:04:29;5.00;68.40
3548;DHT22;1788;49.400;11.092;2022-11-20T05:06:55;5.00;68.40
3548;DHT22;1788;49.400;11.092;2022-11-20T05:09:22;5.00;68.50
3548;DHT22;1788;49.400;11.092;2022-11-20T05:11:49;5.00;68.40
3548;DHT22;1788;49.400;11.092;2022-11-20T05:14:15;5.00;68.30
3548;DHT22;1788;49.400;11.092;2022-11-20T05:16:42;5.00;68.30
3548;DHT22;1788;49.400;11.092;2022-11-20T05:19:08;5.00;68.40
3548;DHT22;1788;49.400;11.092;2022-11-20T05:21:35;5.00;68.30
3548;DHT22;1788;49.400;11.092;2022-11-20T05:24:02;5.00;68.40
3548;DHT22;1788;49.400;11.092;2022-11-20T05:26:28;5.00;68.40
3548;DHT22;1788;49.400;11.092;2022-11-20T05:28:55;5.00;68.40
3548;DHT22;1788;49.400;11.092;2022-11-20T05:31:23;5.00;68.30
3548;DHT22;1788;49.400;11.092;2022-11-20T05:33:48;5.00;68.30
3548;DHT22;1788;49.400;11.092;2022-11-20T05:36:15;5.00;68.30
3548;DHT22;1788;49.400;11.092;2022-11-20T05:38:41;5.00;68.30
3548;DHT22;1788;49.400;11.092;2022-11-20T05:43:35;5.00;68.30
3548;DHT22;1788;49.400;11.092;2022-11-20T05:46:02;5.00;68.30
3548;DHT22;1788;49.400;11.092;2022-11-20T05:48:29;5.00;68.30
3548;DHT22;1788;49.400;11.092;2022-11-20T05:53:22;5.00;68.30
3548;DHT22;1788;49.400;11.092;2022-11-20T05:58:16;5.00;68.40
3548;DHT22;1788;49.400;11.092;2022-11-20T06:00:43;5.00;68.50
3548;DHT22;1788;49.400;11.092;2022-11-20T06:03:10;5.00;68.50
3548;DHT22;1788;49.400;11.092;2022-11-20T06:05:36;5.00;68.50
3548;DHT22;1788;49.400;11.092;2022-11-20T06:08:03;5.00;68.60
3548;DHT22;1788;49.400;11.092;2022-11-20T06:10:29;5.00;68.60
3548;DHT22;1788;49.400;11.092;2022-11-20T06:12:57;5.00;68.60
3548;DHT22;1788;49.400;11.092;2022-11-20T06:15:24;5.00;68.50
3548;DHT22;1788;49.400;11.092;2022-11-20T06:20:17;5.10;68.70
3548;DHT22;1788;49.400;11.092;2022-11-20T06:22:43;5.10;68.60
3548;DHT22;1788;49.400;11.092;2022-11-20T06:25:10;5.10;68.60
3548;DHT22;1788;49.400;11.092;2022-11-20T06:27:37;5.10;68.60
3548;DHT22;1788;49.400;11.092;2022-11-20T06:30:03;5.10;68.60
3548;DHT22;1788;49.400;11.092;2022-11-20T06:32:30;5.10;68.60
3548;DHT22;1788;49.400;11.092;2022-11-20T06:34:57;5.10;68.60
3548;DHT22;1788;49.400;11.092;2022-11-20T06:37:24;5.10;68.60
3548;DHT22;1788;49.400;11.092;2022-11-20T06:39:50;5.10;68.60
3548;DHT22;1788;49.400;11.092;2022-11-20T06:42:17;5.10;68.60
3548;DHT22;1788;49.400;11.092;2022-11-20T06:44:44;5.10;68.60
3548;DHT22;1788;49.400;11.092;2022-11-20T06:47:11;5.10;68.60
3548;DHT22;1788;49.400;11.092;2022-11-20T06:49:38;5.10;68.60
3548;DHT22;1788;49.400;11.092;2022-11-20T06:52:05;5.10;68.50
3548;DHT22;1788;49.400;11.092;2022-11-20T06:54:32;5.10;68.50
3548;DHT22;1788;49.400;11.092;2022-11-20T06:56:58;5.10;68.80
3548;DHT22;1788;49.400;11.092;2022-11-20T06:59:25;5.50;70.80
3548;DHT22;1788;49.400;11.092;2022-11-20T07:01:51;5.70;69.90
3548;DHT22;1788;49.400;11.092;2022-11-20T07:04:19;5.70;68.90
3548;DHT22;1788;49.400;11.092;2022-11-20T07:06:45;5.70;68.80
3548;DHT22;1788;49.400;11.092;2022-11-20T07:09:12;5.70;68.70
3548;DHT22;1788;49.400;11.092;2022-11-20T07:11:39;5.70;68.60
3548;DHT22;1788;49.400;11.092;2022-11-20T07:14:06;5.60;68.70
3548;DHT22;1788;49.400;11.092;2022-11-20T07:16:33;5.60;68.70
3548;DHT22;1788;49.400;11.092;2022-11-20T07:18:59;5.50;68.50
3548;DHT22;1788;49.400;11.092;2022-11-20T07:21:26;5.50;68.70
3548;DHT22;1788;49.400;11.092;2022-11-20T07:23:52;5.40;68.70
3548;DHT22;1788;49.400;11.092;2022-11-20T07:26:19;5.40;68.80
3548;DHT22;1788;49.400;11.092;2022-11-20T07:28:46;5.40;68.90
3548;DHT22;1788;49.400;11.092;2022-11-20T07:31:13;5.40;69.00
3548;DHT22;1788;49.400;11.092;2022-11-20T07:33:41;5.30;68.90
3548;DHT22;1788;49.400;11.092;2022-11-20T07:36:07;5.30;69.00
3548;DHT22;1788;49.400;11.092;2022-11-20T07:38:34;5.30;69.10
3548;DHT22;1788;49.400;11.092;2022-11-20T07:41:01;5.30;69.20
3548;DHT22;1788;49.400;11.092;2022-11-20T07:43:28;5.30;69.20
3548;DHT22;1788;49.400;11.092;2022-11-20T07:45:55;5.30;69.20
3548;DHT22;1788;49.400;11.092;2022-11-20T07:48:21;5.30;69.20
3548;DHT22;1788;49.400;11.092;2022-11-20T07:50:48;5.30;69.10
3548;DHT22;1788;49.400;11.092;2022-11-20T07:53:15;5.30;69.20
3548;DHT22;1788;49.400;11.092;2022-11-20T07:55:42;5.30;69.10
3548;DHT22;1788;49.400;11.092;2022-11-20T07:58:10;5.30;69.10
3548;DHT22;1788;49.400;11.092;2022-11-20T08:00:37;5.30;69.10
3548;DHT22;1788;49.400;11.092;2022-11-20T08:03:03;5.30;69.10
3548;DHT22;1788;49.400;11.092;2022-11-20T08:05:30;5.30;69.90
3548;DHT22;1788;49.400;11.092;2022-11-20T08:07:57;5.30;69.20
3548;DHT22;1788;49.400;11.092;2022-11-20T08:10:23;5.30;69.30
3548;DHT22;1788;49.400;11.092;2022-11-20T08:12:50;5.40;69.40
3548;DHT22;1788;49.400;11.092;2022-11-20T08:15:16;5.40;69.40
3548;DHT22;1788;49.400;11.092;2022-11-20T08:17:43;5.40;69.40
3548;DHT22;1788;49.400;11.092;2022-11-20T08:20:10;5.40;69.30
3548;DHT22;1788;49.400;11.092;2022-11-20T08:22:37;5.40;69.60
3548;DHT22;1788;49.400;11.092;2022-11-20T08:25:04;5.40;69.20
3548;DHT22;1788;49.400;11.092;2022-11-20T08:27:31;5.40;69.20
3548;DHT22;1788;49.400;11.092;2022-11-20T08:29:57;5.40;69.20
3548;DHT22;1788;49.400;11.092;2022-11-20T08:32:23;5.50;69.30
3548;DHT22;1788;49.400;11.092;2022-11-20T08:34:50;5.50;69.30
3548;DHT22;1788;49.400;11.092;2022-11-20T08:37:17;5.40;69.20
3548;DHT22;1788;49.400;11.092;2022-11-20T08:39:43;5.50;69.30
3548;DHT22;1788;49.400;11.092;2022-11-20T08:42:10;5.50;69.40
3548;DHT22;1788;49.400;11.092;2022-11-20T08:44:37;5.50;69.50
3548;DHT22;1788;49.400;11.092;2022-11-20T08:47:03;5.60;69.60
3548;DHT22;1788;49.400;11.092;2022-11-20T08:49:30;5.60;69.60
3548;DHT22;1788;49.400;11.092;2022-11-20T08:51:57;5.70;69.50
3548;DHT22;1788;49.400;11.092;2022-11-20T08:54:24;5.60;69.40
3548;DHT22;1788;49.400;11.092;2022-11-20T08:56:50;5.70;69.50
3548;DHT22;1788;49.400;11.092;2022-11-20T08:59:17;5.70;69.40
3548;DHT22;1788;49.400;11.092;2022-11-20T09:01:44;5.70;69.40
3548;DHT22;1788;49.400;11.092;2022-11-20T09:04:11;5.70;69.30
3548;DHT22;1788;49.400;11.092;2022-11-20T09:06:38;5.70;69.30
3548;DHT22;1788;49.400;11.092;2022-11-20T09:09:04;5.70;69.30
3548;DHT22;1788;49.400;11.092;2022-11-20T09:11:31;5.70;69.30
3548;DHT22;1788;49.400;11.092;2022-11-20T09:13:58;5.70;69.20
3548;DHT22;1788;49.400;11.092;2022-11-20T09:16:25;5.70;69.20
3548;DHT22;1788;49.400;11.092;2022-11-20T09:18:52;5.70;69.10
3548;DHT22;1788;49.400;11.092;2022-11-20T09:21:19;5.70;69.10
3548;DHT22;1788;49.400;11.092;2022-11-20T09:23:46;5.80;69.90
3548;DHT22;1788;49.400;11.092;2022-11-20T09:26:14;5.80;69.80
3548;DHT22;1788;49.400;11.092;2022-11-20T09:28:40;6.10;70.90
3548;DHT22;1788;49.400;11.092;2022-11-20T09:31:08;6.20;70.30
3548;DHT22;1788;49.400;11.092;2022-11-20T09:33:35;6.20;69.70
3548;DHT22;1788;49.400;11.092;2022-11-20T09:36:01;6.30;69.60
3548;DHT22;1788;49.400;11.092;2022-11-20T09:38:28;6.30;69.60
3548;DHT22;1788;49.400;11.092;2022-11-20T09:43:25;6.30;69.60
3548;DHT22;1788;49.400;11.092;2022-11-20T09:55:35;6.40;69.70
3548;DHT22;1788;49.400;11.092;2022-11-20T09:58:01;6.40;69.60
3548;DHT22;1788;49.400;11.092;2022-11-20T10:00:29;6.40;69.50
3548;DHT22;1788;49.400;11.092;2022-11-20T10:15:23;6.40;69.60
3548;DHT22;1788;49.400;11.092;2022-11-20T10:22:33;6.40;69.60
3548;DHT22;1788;49.400;11.092;2022-11-20T10:32:18;6.50;69.90
3548;DHT22;1788;49.400;11.092;2022-11-20T10:42:08;6.50;70.00
3548;DHT22;1788;49.400;11.092;2022-11-20T10:44:32;6.50;70.00
3548;DHT22;1788;49.400;11.092;2022-11-20T10:47:00;6.50;70.80
3548;DHT22;1788;49.400;11.092;2022-11-20T10:49:27;6.50;70.00
3548;DHT22;1788;49.400;11.092;2022-11-20T10:56:48;6.50;70.10
3548;DHT22;1788;49.400;11.092;2022-11-20T11:01:42;6.60;70.20
3548;DHT22;1788;49.400;11.092;2022-11-20T11:06:36;6.70;70.50
3548;DHT22;1788;49.400;11.092;2022-11-20T11:09:04;6.80;70.70
3548;DHT22;1788;49.400;11.092;2022-11-20T11:11:30;6.80;70.70
3548;DHT22;1788;49.400;11.092;2022-11-20T11:16:23;6.90;71.00
3548;DHT22;1788;49.400;11.092;2022-11-20T11:18:50;6.90;71.20
3548;DHT22;1788;49.400;11.092;2022-11-20T11:23:43;7.00;71.50
3548;DHT22;1788;49.400;11.092;2022-11-20T11:28:37;7.10;71.70
3548;DHT22;1788;49.400;11.092;2022-11-20T11:31:04;7.20;72.10
3548;DHT22;1788;49.400;11.092;2022-11-20T11:33:31;7.20;72.10
3548;DHT22;1788;49.400;11.092;2022-11-20T11:35:59;7.30;72.20
3548;DHT22;1788;49.400;11.092;2022-11-20T11:40:53;7.30;71.60
3548;DHT22;1788;49.400;11.092;2022-11-20T11:43:20;7.10;71.20
3548;DHT22;1788;49.400;11.092;2022-11-20T11:48:14;7.10;71.20
3548;DHT22;1788;49.400;11.092;2022-11-20T11:50:47;7.00;71.10
3548;DHT22;1788;49.400;11.092;2022-11-20T11:53:11;7.00;71.40
3548;DHT22;1788;49.400;11.092;2022-11-20T12:00:29;6.80;72.20
3548;DHT22;1788;49.400;11.092;2022-11-20T12:03:00;6.80;71.40
3548;DHT22;1788;49.400;11.092;2022-11-20T12:07:54;6.80;71.40
3548;DHT22;1788;49.400;11.092;2022-11-20T12:10:21;6.80;71.40
3548;DHT22;1788;49.400;11.092;2022-11-20T12:12:48;6.80;71.40
3548;DHT22;1788;49.400;11.092;2022-11-20T12:15:13;6.80;71.50
3548;DHT22;1788;49.400;11.092;2022-11-20T12:17:39;6.90;71.90
3548;DHT22;1788;49.400;11.092;2022-11-20T12:20:11;6.90;71.60
3548;DHT22;1788;49.400;11.092;2022-11-20T12:25:02;6.90;71.40
3548;DHT22;1788;49.400;11.092;2022-11-20T12:34:47;7.00;71.20
3548;DHT22;1788;49.400;11.092;2022-11-20T12:37:18;7.00;71.70
3548;DHT22;1788;49.400;11.092;2022-11-20T12:39:41;7.00;71.00
3548;DHT22;1788;49.400;11.092;2022-11-20T12:42:12;7.00;71.20
3548;DHT22;1788;49.400;11.092;2022-11-20T12:49:33;7.00;71.30
3548;DHT22;1788;49.400;11.092;2022-11-20T12:51:58;7.20;71.40
3548;DHT22;1788;49.400;11.092;2022-11-20T13:06:38;7.30;70.90
3548;DHT22;1788;49.400;11.092;2022-11-20T13:09:06;7.40;71.10
3548;DHT22;1788;49.400;11.092;2022-11-20T13:16:36;7.30;71.90
3548;DHT22;1788;49.400;11.092;2022-11-20T13:18:54;7.20;70.90
3548;DHT22;1788;49.400;11.092;2022-11-20T13:21:22;7.20;71.10
3548;DHT22;1788;49.400;11.092;2022-11-20T13:23:48;7.20;71.00
3548;DHT22;1788;49.400;11.092;2022-11-20T13:28:42;7.20;71.00
3548;DHT22;1788;49.400;11.092;2022-11-20T13:31:10;7.20;71.10
3548;DHT22;1788;49.400;11.092;2022-11-20T13:33:36;7.20;71.10
3548;DHT22;1788;49.400;11.092;2022-11-20T13:36:03;7.20;71.10
3548;DHT22;1788;49.400;11.092;2022-11-20T13:38:40;7.20;71.10
3548;DHT22;1788;49.400;11.092;2022-11-20T13:40:57;7.20;71.20
3548;DHT22;1788;49.400;11.092;2022-11-20T13:48:19;7.20;71.20
3548;DHT22;1788;49.400;11.092;2022-11-20T14:00:29;7.10;71.40
3548;DHT22;1788;49.400;11.092;2022-11-20T14:05:22;7.00;71.40
3548;DHT22;1788;49.400;11.092;2022-11-20T14:07:49;7.00;71.40
3548;DHT22;1788;49.400;11.092;2022-11-20T14:12:42;7.00;71.40
3548;DHT22;1788;49.400;11.092;2022-11-20T14:15:24;6.90;71.50
3548;DHT22;1788;49.400;11.092;2022-11-20T14:17:36;6.90;71.60
3548;DHT22;1788;49.400;11.092;2022-11-20T14:22:30;6.90;71.70
3548;DHT22;1788;49.400;11.092;2022-11-20T14:27:24;6.90;71.90
3548;DHT22;1788;49.400;11.092;2022-11-20T14:29:51;6.90;71.90
3548;DHT22;1788;49.400;11.092;2022-11-20T14:32:19;6.90;71.90
3548;DHT22;1788;49.400;11.092;2022-11-20T14:34:45;6.90;72.00
3548;DHT22;1788;49.400;11.092;2022-11-20T14:37:12;6.90;72.00
3548;DHT22;1788;49.400;11.092;2022-11-20T14:44:32;7.30;74.10
3548;DHT22;1788;49.400;11.092;2022-11-20T14:46:59;7.70;74.20
3548;DHT22;1788;49.400;11.092;2022-11-20T14:49:25;7.80;73.00
3548;DHT22;1788;49.400;11.092;2022-11-20T14:54:19;7.90;72.10
3548;DHT22;1788;49.400;11.092;2022-11-20T14:59:21;7.70;72.20
3548;DHT22;1788;49.400;11.092;2022-11-20T15:01:40;7.70;71.80
3548;DHT22;1788;49.400;11.092;2022-11-20T15:04:08;7.70;71.90
3548;DHT22;1788;49.400;11.092;2022-11-20T15:06:33;7.60;71.90
3548;DHT22;1788;49.400;11.092;2022-11-20T15:09:01;7.60;72.00
3548;DHT22;1788;49.400;11.092;2022-11-20T15:11:28;7.50;72.00
3548;DHT22;1788;49.400;11.092;2022-11-20T15:13:54;7.50;72.00
3548;DHT22;1788;49.400;11.092;2022-11-20T15:16:22;7.50;72.00
3548;DHT22;1788;49.400;11.092;2022-11-20T15:18:49;7.50;72.00
3548;DHT22;1788;49.400;11.092;2022-11-20T15:21:16;7.50;72.00
3548;DHT22;1788;49.400;11.092;2022-11-20T15:23:42;7.50;72.00
3548;DHT22;1788;49.400;11.092;2022-11-20T15:26:09;7.50;72.00
3548;DHT22;1788;49.400;11.092;2022-11-20T15:28:36;7.50;72.00
3548;DHT22;1788;49.400;11.092;2022-11-20T15:31:02;7.50;72.00
3548;DHT22;1788;49.400;11.092;2022-11-20T15:33:30;7.50;72.00
3548;DHT22;1788;49.400;11.092;2022-11-20T15:35:56;7.40;71.90
3548;DHT22;1788;49.400;11.092;2022-11-20T15:38:23;7.40;71.80
3548;DHT22;1788;49.400;11.092;2022-11-20T15:40:50;7.50;71.90
3548;DHT22;1788;49.400;11.092;2022-11-20T15:43:16;7.40;71.80
3548;DHT22;1788;49.400;11.092;2022-11-20T15:48:11;7.40;71.80
3548;DHT22;1788;49.400;11.092;2022-11-20T15:50:37;7.40;71.90
3548;DHT22;1788;49.400;11.092;2022-11-20T15:53:03;7.40;71.90
3548;DHT22;1788;49.400;11.092;2022-11-20T15:55:30;7.40;72.00
3548;DHT22;1788;49.400;11.092;2022-11-20T15:57:57;7.40;72.90
3548;DHT22;1788;49.400;11.092;2022-11-20T16:00:24;7.40;72.00
3548;DHT22;1788;49.400;11.092;2022-11-20T16:02:52;7.40;72.00
3548;DHT22;1788;49.400;11.092;2022-11-20T16:05:18;7.40;71.90
3548;DHT22;1788;49.400;11.092;2022-11-20T16:07:45;7.40;72.10
3548;DHT22;1788;49.400;11.092;2022-11-20T16:10:12;7.80;74.20
3548;DHT22;1788;49.400;11.092;2022-11-20T16:12:38;8.30;75.10
3548;DHT22;1788;49.400;11.092;2022-11-20T16:15:05;8.50;73.70
3548;DHT22;1788;49.400;11.092;2022-11-20T16:17:32;8.60;71.90
3548;DHT22;1788;49.400;11.092;2022-11-20T16:19:59;8.60;71.80
3548;DHT22;1788;49.400;11.092;2022-11-20T16:22:25;8.50;71.30
3548;DHT22;1788;49.400;11.092;2022-11-20T16:24:52;8.40;71.10
3548;DHT22;1788;49.400;11.092;2022-11-20T16:27:19;8.40;71.10
3548;DHT22;1788;49.400;11.092;2022-11-20T16:29:45;8.20;71.00
3548;DHT22;1788;49.400;11.092;2022-11-20T16:32:12;8.20;71.10
3548;DHT22;1788;49.400;11.092;2022-11-20T16:34:39;8.10;71.10
3548;DHT22;1788;49.400;11.092;2022-11-20T16:37:05;8.00;71.10
3548;DHT22;1788;49.400;11.092;2022-11-20T16:39:32;7.90;71.20
3548;DHT22;1788;49.400;11.092;2022-11-20T16:42:02;7.90;71.20
3548;DHT22;1788;49.400;11.092;2022-11-20T16:44:26;7.80;71.30
3548;DHT22;1788;49.400;11.092;2022-11-20T16:46:53;7.70;71.20
3548;DHT22;1788;49.400;11.092;2022-11-20T16:49:20;7.70;71.30
3548;DHT22;1788;49.400;11.092;2022-11-20T16:51:47;7.70;71.40
3548;DHT22;1788;49.400;11.092;2022-11-20T16:54:14;7.60;71.30
3548;DHT22;1788;49.400;11.092;2022-11-20T16:56:40;7.60;71.40
3548;DHT22;1788;49.400;11.092;2022-11-20T16:59:08;7.50;71.30
3548;DHT22;1788;49.400;11.092;2022-11-20T17:01:35;7.50;71.30
3548;DHT22;1788;49.400;11.092;2022-11-20T17:04:03;7.40;71.30
3548;DHT22;1788;49.400;11.092;2022-11-20T17:08:57;7.40;71.40
3548;DHT22;1788;49.400;11.092;2022-11-20T17:11:24;7.30;71.30
3548;DHT22;1788;49.400;11.092;2022-11-20T17:13:51;7.30;71.30
3548;DHT22;1788;49.400;11.092;2022-11-20T17:16:19;7.30;71.30
3548;DHT22;1788;49.400;11.092;2022-11-20T17:18:46;7.30;71.30
3548;DHT22;1788;49.400;11.092;2022-11-20T17:21:12;7.20;71.20
3548;DHT22;1788;49.400;11.092;2022-11-20T17:23:40;7.20;71.30
3548;DHT22;1788;49.400;11.092;2022-11-20T17:28:34;7.20;71.40
3548;DHT22;1788;49.400;11.092;2022-11-20T17:31:01;7.20;72.20
3548;DHT22;1788;49.400;11.092;2022-11-20T17:33:27;7.10;71.40
3548;DHT22;1788;49.400;11.092;2022-11-20T17:35:54;7.10;71.30
3548;DHT22;1788;49.400;11.092;2022-11-20T17:38:20;7.10;71.20
3548;DHT22;1788;49.400;11.092;2022-11-20T17:40:47;7.00;71.10
3548;DHT22;1788;49.400;11.092;2022-11-20T17:43:15;7.00;71.00
3548;DHT22;1788;49.400;11.092;2022-11-20T17:45:41;7.00;71.00
3548;DHT22;1788;49.400;11.092;2022-11-20T17:48:09;7.00;71.00
3548;DHT22;1788;49.400;11.092;2022-11-20T17:50:35;6.90;70.90
3548;DHT22;1788;49.400;11.092;2022-11-20T17:53:03;6.90;70.80
3548;DHT22;1788;49.400;11.092;2022-11-20T17:55:29;6.80;70.60
3548;DHT22;1788;49.400;11.092;2022-11-20T17:57:56;6.80;70.80
3548;DHT22;1788;49.400;11.092;2022-11-20T18:00:23;6.70;70.80
3548;DHT22;1788;49.400;11.092;2022-11-20T18:02:50;6.70;70.80
3548;DHT22;1788;49.400;11.092;2022-11-20T18:05:16;6.60;70.70
3548;DHT22;1788;49.400;11.092;2022-11-20T18:07:43;6.60;70.80
3548;DHT22;1788;49.400;11.092;2022-11-20T18:10:10;6.60;70.80
3548;DHT22;1788;49.400;11.092;2022-11-20T18:12:37;6.50;70.70
3548;DHT22;1788;49.400;11.092;2022-11-20T18:15:04;6.50;70.70
3548;DHT22;1788;49.400;11.092;2022-11-20T18:17:30;6.50;70.70
3548;DHT22;1788;49.400;11.092;2022-11-20T18:19:58;6.40;70.50
3548;DHT22;1788;49.400;11.092;2022-11-20T18:22:24;6.40;70.50
3548;DHT22;1788;49.400;11.092;2022-11-20T18:24:51;6.40;70.40
3548;DHT22;1788;49.400;11.092;2022-11-20T18:27:19;6.40;70.40
3548;DHT22;1788;49.400;11.092;2022-11-20T18:29:46;6.40;70.40
3548;DHT22;1788;49.400;11.092;2022-11-20T18:32:17;6.30;70.40
3548;DHT22;1788;49.400;11.092;2022-11-20T18:34:42;6.30;70.40
3548;DHT22;1788;49.400;11.092;2022-11-20T18:37:09;6.30;70.60
3548;DHT22;1788;49.400;11.092;2022-11-20T18:39:37;6.30;70.70
3548;DHT22;1788;49.400;11.092;2022-11-20T18:42:04;6.30;70.80
3548;DHT22;1788;49.400;11.092;2022-11-20T18:44:31;6.30;71.00
3548;DHT22;1788;49.400;11.092;2022-11-20T18:46:59;6.30;71.10
3548;DHT22;1788;49.400;11.092;2022-11-20T18:49:29;6.30;71.20
3548;DHT22;1788;49.400;11.092;2022-11-20T18:51:55;6.30;71.40
3548;DHT22;1788;49.400;11.092;2022-11-20T18:54:22;6.30;71.40
3548;DHT22;1788;49.400;11.092;2022-11-20T18:56:49;6.30;71.40
3548;DHT22;1788;49.400;11.092;2022-11-20T18:59:17;6.40;71.80
3548;DHT22;1788;49.400;11.092;2022-11-20T19:01:44;6.40;71.80
3548;DHT22;1788;49.400;11.092;2022-11-20T19:04:11;6.40;71.60
3548;DHT22;1788;49.400;11.092;2022-11-20T19:06:37;6.50;71.70